Spabunker 51 — ECNA — position and weather

sailwx.info

Track history (hours):
 
Tides and Currents Weather Stations Pressure Air Temp Water Temp Dewpoint Dewpoint Depression Visibility Wind Speed Wind Dir Waves Ship Positions

Spabunker 51

Last reported at 2014-Nov-23 13:32 UTC. Time now 2014-Nov-23 16:16 UTC.
Position N 36°06' W 005°24'.

Length 84 m; draft 5.8 m.

Type: Ship (hazmat cat A). MMSI: 224322240.

Date/timePositionNaut miles runAvg speedWind from/ knotsBaromVisibWave heightAir tempDewpointWater temp
2014-Nov-23 13:32N 36°06' W 005°24'0 0.1
2014-Nov-23 12:30N 36°06' W 005°24'0 0.0
2014-Nov-23 11:33N 36°06' W 005°24'3 0.3
2014-Nov-23 00:26N 36°09' W 005°26'0 0.0
2014-Nov-22 19:30N 36°09' W 005°26'0 0.0
2014-Nov-22 18:29N 36°09' W 005°26'0 0.0
2014-Nov-22 16:27N 36°09' W 005°26'0 0.0
2014-Nov-22 15:33N 36°09' W 005°26'0 0.0
2014-Nov-22 14:28N 36°09' W 005°26'0 0.3
2014-Nov-22 13:29N 36°09' W 005°26'0 0.0
2014-Nov-22 11:17N 36°09' W 005°26'0 0.1
2014-Nov-22 09:14N 36°09' W 005°26'0 0.0
2014-Nov-22 07:33N 36°09' W 005°26'0 0.0
2014-Nov-22 06:33N 36°09' W 005°26'0 0.0
2014-Nov-22 05:33N 36°09' W 005°26'0 0.0
2014-Nov-22 03:13N 36°09' W 005°26'2 1.2
2014-Nov-22 01:33N 36°10' W 005°24'0 0.0
2014-Nov-22 00:25N 36°10' W 005°24'0 0.0
2014-Nov-21 22:26N 36°10' W 005°24'1 0.2
2014-Nov-21 16:18N 36°10' W 005°26'0 0.1
2014-Nov-21 15:29N 36°10' W 005°26'0 0.0
2014-Nov-21 13:30N 36°10' W 005°26'0 0.0
2014-Nov-21 12:28N 36°10' W 005°26'1 0.1
2014-Nov-21 00:14N 36°09' W 005°26'0 0.0
2014-Nov-20 23:33N 36°09' W 005°26'0 0.0
2014-Nov-20 22:31N 36°09' W 005°26'0 0.0
2014-Nov-20 21:33N 36°09' W 005°26'0 0.0
2014-Nov-20 20:17N 36°09' W 005°26'0 0.0
2014-Nov-20 19:30N 36°09' W 005°26'0 0.0
2014-Nov-20 18:33N 36°09' W 005°26'0 0.0
2014-Nov-20 17:33N 36°09' W 005°26'0 0.0
2014-Nov-20 16:33N 36°09' W 005°26'0 0.0
2014-Nov-20 14:08N 36°09' W 005°26'0 0.0
2014-Nov-20 11:32N 36°09' W 005°26'3 1.9
2014-Nov-20 10:13N 36°11' W 005°24'0 0.0
2014-Nov-20 09:13N 36°11' W 005°24'0 0.0
2014-Nov-20 08:15N 36°11' W 005°24'0 0.0
2014-Nov-20 07:23N 36°11' W 005°24'0 0.0
2014-Nov-20 06:05N 36°11' W 005°24'0 0.0
2014-Nov-20 05:31N 36°11' W 005°24'0 0.0
2014-Nov-20 04:30N 36°11' W 005°24'0 0.0
2014-Nov-20 03:32N 36°11' W 005°24'0 0.0
2014-Nov-20 02:31N 36°11' W 005°24'0 0.4
2014-Nov-20 01:32N 36°10' W 005°23'1 0.6
2014-Nov-20 00:04N 36°10' W 005°23'4 2.4
2014-Nov-19 22:26N 36°06' W 005°24'0 0.1
2014-Nov-19 21:33N 36°06' W 005°24'0 0.1
2014-Nov-19 20:32N 36°06' W 005°24'1 0.9
2014-Nov-19 19:24N 36°05' W 005°25'4 0.4
2014-Nov-19 11:32N 36°09' W 005°26'0 0.2
2014-Nov-19 10:23N 36°09' W 005°26'0 0.0
2014-Nov-19 09:33N 36°09' W 005°26'0 0.0
2014-Nov-19 08:33N 36°09' W 005°26'2 0.3
2014-Nov-19 01:28N 36°07' W 005°25'1 1.0
2014-Nov-19 00:33N 36°06' W 005°25'0 0.1
2014-Nov-18 23:33N 36°06' W 005°25'0 0.0
2014-Nov-18 22:33N 36°06' W 005°25'0 0.0
2014-Nov-18 21:33N 36°06' W 005°25'0 0.0
2014-Nov-18 20:33N 36°06' W 005°25'0 0.1
2014-Nov-18 19:21N 36°06' W 005°25'1 1.2
2014-Nov-18 18:33N 36°05' W 005°24'0 0.1
2014-Nov-18 15:30N 36°05' W 005°24'0 0.1
2014-Nov-18 14:18N 36°05' W 005°24'0 0.1
2014-Nov-18 13:33N 36°05' W 005°24'0 0.0
2014-Nov-18 12:33N 36°05' W 005°24'0 0.1
2014-Nov-18 11:33N 36°05' W 005°24'0 0.1
2014-Nov-18 10:33N 36°05' W 005°24'3 1.0
2014-Nov-18 07:18N 36°08' W 005°26'0 0.0
2014-Nov-18 06:33N 36°08' W 005°26'0 0.0
2014-Nov-18 05:33N 36°08' W 005°26'0 0.0
2014-Nov-18 04:33N 36°08' W 005°26'0 0.0
2014-Nov-18 03:33N 36°08' W 005°26'0 0.0
2014-Nov-18 00:31N 36°08' W 005°26'0 0.0
2014-Nov-17 23:27N 36°08' W 005°26'1 1.0
2014-Nov-17 22:28N 36°09' W 005°26'0 0.3
2014-Nov-17 21:33N 36°09' W 005°26'0 0.0
2014-Nov-17 20:27N 36°09' W 005°26'0 0.0
2014-Nov-17 02:31N 36°09' W 005°26'1 0.5
2014-Nov-17 01:13N 36°09' W 005°26'0 0.0
2014-Nov-17 00:33N 36°09' W 005°26'0 0.0
2014-Nov-16 23:31N 36°09' W 005°26'1 0.3
2014-Nov-16 20:29N 36°09' W 005°26'3 0.5
2014-Nov-16 13:13N 36°05' W 005°25'0 0.0
2014-Nov-16 12:21N 36°05' W 005°25'0 0.1
2014-Nov-16 11:21N 36°05' W 005°25'0 0.1
2014-Nov-16 10:30N 36°05' W 005°25'0 0.0
2014-Nov-16 09:32N 36°05' W 005°25'4 0.7
2014-Nov-16 04:08N 36°09' W 005°26'3 4.6
2014-Nov-16 03:26N 36°06' W 005°25'0 0.0
2014-Nov-16 02:29N 36°06' W 005°25'1 0.3
2014-Nov-16 00:10N 36°06' W 005°25'0 0.0
2014-Nov-15 22:25N 36°06' W 005°25'0 0.1
2014-Nov-15 21:24N 36°06' W 005°25'0 0.1
2014-Nov-15 20:30N 36°06' W 005°25'2 0.5
2014-Nov-15 15:25N 36°09' W 005°26'0 0.0
2014-Nov-15 08:30N 36°09' W 005°26'3 0.3
2014-Nov-14 22:27N 36°06' W 005°24'0 0.1
2014-Nov-14 21:33N 36°06' W 005°24'0 0.1
2014-Nov-14 20:33N 36°06' W 005°24'0 0.1
2014-Nov-14 19:33N 36°06' W 005°24'0 0.0
2014-Nov-14 18:33N 36°06' W 005°24'0 0.0
2014-Nov-14 17:33N 36°06' W 005°24'3 0.2
2014-Nov-14 03:11N 36°09' W 005°26'0 0.5
2014-Nov-14 02:32N 36°09' W 005°26'0 0.0
2014-Nov-13 22:19N 36°09' W 005°26'3 4.1
2014-Nov-13 21:32N 36°06' W 005°24'0 0.1
2014-Nov-13 20:29N 36°06' W 005°24'0 0.0
2014-Nov-13 19:33N 36°06' W 005°24'0 0.0
2014-Nov-13 18:33N 36°06' W 005°24'0 0.0
2014-Nov-13 17:29N 36°06' W 005°24'0 0.0
2014-Nov-13 16:33N 36°06' W 005°24'0 0.1
2014-Nov-13 15:33N 36°06' W 005°24'  
Track history (hours):
 
Tides and Currents Weather Stations Pressure Air Temp Water Temp Dewpoint Dewpoint Depression Visibility Wind Speed Wind Dir Waves Ship Positions

Spabunker 51

Last reported at 2014-Nov-23 13:32 UTC. Time now 2014-Nov-23 16:16 UTC.
Position N 36°06' W 005°24'.

Length 84 m; draft 5.8 m.

Type: Ship (hazmat cat A). MMSI: 224322240.

Date/timePositionNaut miles runAvg speedWind from/ knotsBaromVisibWave heightAir tempDewpointWater temp
2014-Nov-23 13:32N 36°06' W 005°24'0 0.1
2014-Nov-23 12:30N 36°06' W 005°24'0 0.0
2014-Nov-23 11:33N 36°06' W 005°24'3 0.3
2014-Nov-23 00:26N 36°09' W 005°26'0 0.0
2014-Nov-22 19:30N 36°09' W 005°26'0 0.0
2014-Nov-22 18:29N 36°09' W 005°26'0 0.0
2014-Nov-22 16:27N 36°09' W 005°26'0 0.0
2014-Nov-22 15:33N 36°09' W 005°26'0 0.0
2014-Nov-22 14:28N 36°09' W 005°26'0 0.3
2014-Nov-22 13:29N 36°09' W 005°26'0 0.0
2014-Nov-22 11:17N 36°09' W 005°26'0 0.1
2014-Nov-22 09:14N 36°09' W 005°26'0 0.0
2014-Nov-22 07:33N 36°09' W 005°26'0 0.0
2014-Nov-22 06:33N 36°09' W 005°26'0 0.0
2014-Nov-22 05:33N 36°09' W 005°26'0 0.0
2014-Nov-22 03:13N 36°09' W 005°26'2 1.2
2014-Nov-22 01:33N 36°10' W 005°24'0 0.0
2014-Nov-22 00:25N 36°10' W 005°24'0 0.0
2014-Nov-21 22:26N 36°10' W 005°24'1 0.2
2014-Nov-21 16:18N 36°10' W 005°26'0 0.1
2014-Nov-21 15:29N 36°10' W 005°26'0 0.0
2014-Nov-21 13:30N 36°10' W 005°26'0 0.0
2014-Nov-21 12:28N 36°10' W 005°26'1 0.1
2014-Nov-21 00:14N 36°09' W 005°26'0 0.0
2014-Nov-20 23:33N 36°09' W 005°26'0 0.0
2014-Nov-20 22:31N 36°09' W 005°26'0 0.0
2014-Nov-20 21:33N 36°09' W 005°26'0 0.0
2014-Nov-20 20:17N 36°09' W 005°26'0 0.0
2014-Nov-20 19:30N 36°09' W 005°26'0 0.0
2014-Nov-20 18:33N 36°09' W 005°26'0 0.0
2014-Nov-20 17:33N 36°09' W 005°26'0 0.0
2014-Nov-20 16:33N 36°09' W 005°26'0 0.0
2014-Nov-20 14:08N 36°09' W 005°26'0 0.0
2014-Nov-20 11:32N 36°09' W 005°26'3 1.9
2014-Nov-20 10:13N 36°11' W 005°24'0 0.0
2014-Nov-20 09:13N 36°11' W 005°24'0 0.0
2014-Nov-20 08:15N 36°11' W 005°24'0 0.0
2014-Nov-20 07:23N 36°11' W 005°24'0 0.0
2014-Nov-20 06:05N 36°11' W 005°24'0 0.0
2014-Nov-20 05:31N 36°11' W 005°24'0 0.0
2014-Nov-20 04:30N 36°11' W 005°24'0 0.0
2014-Nov-20 03:32N 36°11' W 005°24'0 0.0
2014-Nov-20 02:31N 36°11' W 005°24'0 0.4
2014-Nov-20 01:32N 36°10' W 005°23'1 0.6
2014-Nov-20 00:04N 36°10' W 005°23'4 2.4
2014-Nov-19 22:26N 36°06' W 005°24'0 0.1
2014-Nov-19 21:33N 36°06' W 005°24'0 0.1
2014-Nov-19 20:32N 36°06' W 005°24'1 0.9
2014-Nov-19 19:24N 36°05' W 005°25'4 0.4
2014-Nov-19 11:32N 36°09' W 005°26'0 0.2
2014-Nov-19 10:23N 36°09' W 005°26'0 0.0
2014-Nov-19 09:33N 36°09' W 005°26'0 0.0
2014-Nov-19 08:33N 36°09' W 005°26'2 0.3
2014-Nov-19 01:28N 36°07' W 005°25'1 1.0
2014-Nov-19 00:33N 36°06' W 005°25'0 0.1
2014-Nov-18 23:33N 36°06' W 005°25'0 0.0
2014-Nov-18 22:33N 36°06' W 005°25'0 0.0
2014-Nov-18 21:33N 36°06' W 005°25'0 0.0
2014-Nov-18 20:33N 36°06' W 005°25'0 0.1
2014-Nov-18 19:21N 36°06' W 005°25'1 1.2
2014-Nov-18 18:33N 36°05' W 005°24'0 0.1
2014-Nov-18 15:30N 36°05' W 005°24'0 0.1
2014-Nov-18 14:18N 36°05' W 005°24'0 0.1
2014-Nov-18 13:33N 36°05' W 005°24'0 0.0
2014-Nov-18 12:33N 36°05' W 005°24'0 0.1
2014-Nov-18 11:33N 36°05' W 005°24'0 0.1
2014-Nov-18 10:33N 36°05' W 005°24'3 1.0
2014-Nov-18 07:18N 36°08' W 005°26'0 0.0
2014-Nov-18 06:33N 36°08' W 005°26'0 0.0
2014-Nov-18 05:33N 36°08' W 005°26'0 0.0
2014-Nov-18 04:33N 36°08' W 005°26'0 0.0
2014-Nov-18 03:33N 36°08' W 005°26'0 0.0
2014-Nov-18 00:31N 36°08' W 005°26'0 0.0
2014-Nov-17 23:27N 36°08' W 005°26'1 1.0
2014-Nov-17 22:28N 36°09' W 005°26'0 0.3
2014-Nov-17 21:33N 36°09' W 005°26'0 0.0
2014-Nov-17 20:27N 36°09' W 005°26'0 0.0
2014-Nov-17 02:31N 36°09' W 005°26'1 0.5
2014-Nov-17 01:13N 36°09' W 005°26'0 0.0
2014-Nov-17 00:33N 36°09' W 005°26'0 0.0
2014-Nov-16 23:31N 36°09' W 005°26'1 0.3
2014-Nov-16 20:29N 36°09' W 005°26'3 0.5
2014-Nov-16 13:13N 36°05' W 005°25'0 0.0
2014-Nov-16 12:21N 36°05' W 005°25'0 0.1
2014-Nov-16 11:21N 36°05' W 005°25'0 0.1
2014-Nov-16 10:30N 36°05' W 005°25'0 0.0
2014-Nov-16 09:32N 36°05' W 005°25'4 0.7
2014-Nov-16 04:08N 36°09' W 005°26'3 4.6
2014-Nov-16 03:26N 36°06' W 005°25'0 0.0
2014-Nov-16 02:29N 36°06' W 005°25'1 0.3
2014-Nov-16 00:10N 36°06' W 005°25'0 0.0
2014-Nov-15 22:25N 36°06' W 005°25'0 0.1
2014-Nov-15 21:24N 36°06' W 005°25'0 0.1
2014-Nov-15 20:30N 36°06' W 005°25'2 0.5
2014-Nov-15 15:25N 36°09' W 005°26'0 0.0
2014-Nov-15 08:30N 36°09' W 005°26'3 0.3
2014-Nov-14 22:27N 36°06' W 005°24'0 0.1
2014-Nov-14 21:33N 36°06' W 005°24'0 0.1
2014-Nov-14 20:33N 36°06' W 005°24'0 0.1
2014-Nov-14 19:33N 36°06' W 005°24'0 0.0
2014-Nov-14 18:33N 36°06' W 005°24'0 0.0
2014-Nov-14 17:33N 36°06' W 005°24'3 0.2
2014-Nov-14 03:11N 36°09' W 005°26'0 0.5
2014-Nov-14 02:32N 36°09' W 005°26'0 0.0
2014-Nov-13 22:19N 36°09' W 005°26'3 4.1
2014-Nov-13 21:32N 36°06' W 005°24'0 0.1
2014-Nov-13 20:29N 36°06' W 005°24'0 0.0
2014-Nov-13 19:33N 36°06' W 005°24'0 0.0
2014-Nov-13 18:33N 36°06' W 005°24'0 0.0
2014-Nov-13 17:29N 36°06' W 005°24'0 0.0
2014-Nov-13 16:33N 36°06' W 005°24'0 0.1
2014-Nov-13 15:33N 36°06' W 005°24'  

Dump ship's entire track history